createdAt,value
2023-05-18T00:00:22.184Z,24.10
2023-05-18T00:01:22.155Z,24.09
2023-05-18T00:02:22.172Z,24.10
2023-05-18T00:03:22.211Z,24.10
2023-05-18T00:04:22.189Z,24.10
2023-05-18T00:05:22.133Z,24.09
2023-05-18T00:06:22.144Z,24.10
2023-05-18T00:07:22.132Z,24.08
2023-05-18T00:08:22.157Z,24.09
2023-05-18T00:09:22.137Z,24.08
2023-05-18T00:10:22.204Z,24.08
2023-05-18T00:11:22.152Z,24.08
2023-05-18T00:12:22.164Z,24.08
2023-05-18T00:13:22.155Z,24.08
2023-05-18T00:14:22.164Z,24.08
2023-05-18T00:15:22.214Z,24.07
2023-05-18T00:16:22.224Z,24.08
2023-05-18T00:17:22.661Z,24.07
2023-05-18T00:18:22.201Z,24.07
2023-05-18T00:19:22.241Z,24.07
2023-05-18T00:20:22.289Z,24.08
2023-05-18T00:21:22.234Z,24.07
2023-05-18T00:22:22.288Z,24.08
2023-05-18T00:23:22.303Z,24.07
2023-05-18T00:24:22.375Z,24.07
2023-05-18T00:25:22.356Z,24.07
2023-05-18T00:26:22.432Z,24.08
2023-05-18T00:27:22.428Z,24.07
2023-05-18T00:28:22.427Z,24.07
2023-05-18T00:29:22.545Z,24.07
2023-05-18T00:30:22.453Z,24.06
2023-05-18T00:31:22.528Z,24.07
2023-05-18T00:32:22.509Z,24.06
2023-05-18T00:33:22.530Z,24.06
2023-05-18T00:34:22.516Z,24.06
2023-05-18T00:35:22.520Z,24.06
2023-05-18T00:36:22.529Z,24.06
2023-05-18T00:37:22.562Z,24.06
2023-05-18T00:38:22.612Z,24.06
2023-05-18T00:39:22.561Z,24.06
2023-05-18T00:40:22.564Z,24.05
2023-05-18T00:41:22.560Z,24.05
2023-05-18T00:42:22.607Z,24.06
2023-05-18T00:43:22.678Z,24.05
2023-05-18T00:44:22.649Z,24.05
2023-05-18T00:45:22.652Z,24.06
2023-05-18T00:46:22.669Z,24.06
2023-05-18T00:47:22.709Z,24.05
2023-05-18T00:48:22.750Z,24.04
2023-05-18T00:49:22.723Z,24.05
2023-05-18T00:50:22.783Z,24.05
2023-05-18T00:51:22.790Z,24.04
2023-05-18T00:52:22.780Z,24.04
2023-05-18T00:53:22.853Z,24.04
2023-05-18T00:54:22.834Z,24.04
2023-05-18T00:55:22.851Z,24.04
2023-05-18T00:56:22.877Z,24.04
2023-05-18T00:57:22.879Z,24.04
2023-05-18T00:58:22.882Z,24.04
2023-05-18T00:59:22.908Z,24.04
2023-05-18T01:00:22.918Z,24.05
2023-05-18T01:01:22.930Z,24.05
2023-05-18T01:02:22.937Z,24.03
2023-05-18T01:03:22.908Z,24.03
2023-05-18T01:04:22.876Z,24.04
2023-05-18T01:05:22.891Z,24.03
2023-05-18T01:06:22.893Z,24.04
2023-05-18T01:07:22.902Z,24.03
2023-05-18T01:08:22.914Z,24.03
2023-05-18T01:09:22.906Z,24.02
2023-05-18T01:10:22.874Z,24.03
2023-05-18T01:11:22.906Z,24.03
2023-05-18T01:12:22.878Z,24.03
2023-05-18T01:13:22.889Z,24.03
2023-05-18T01:14:22.891Z,24.02
2023-05-18T01:15:22.904Z,24.02
2023-05-18T01:16:22.988Z,24.02
2023-05-18T01:17:22.966Z,24.02
2023-05-18T01:18:22.892Z,24.02
2023-05-18T01:19:23.006Z,24.02
2023-05-18T01:20:22.892Z,24.02
2023-05-18T01:21:22.901Z,24.02
2023-05-18T01:22:22.878Z,24.02
2023-05-18T01:23:22.907Z,24.02
2023-05-18T01:24:22.919Z,24.02
2023-05-18T01:25:22.874Z,24.02
2023-05-18T01:26:22.877Z,24.03
2023-05-18T01:27:22.874Z,24.02
2023-05-18T01:28:23.015Z,24.02
2023-05-18T01:29:22.890Z,24.01
2023-05-18T01:30:22.877Z,24.01
2023-05-18T01:31:23.082Z,24.01
2023-05-18T01:32:22.931Z,24.01
2023-05-18T01:33:22.874Z,24.01
2023-05-18T01:34:22.876Z,24.00
2023-05-18T01:35:22.889Z,24.01
2023-05-18T01:36:22.863Z,24.00
2023-05-18T01:37:22.898Z,24.01
2023-05-18T01:38:22.908Z,24.01
2023-05-18T01:39:22.911Z,24.01
2023-05-18T01:40:22.920Z,24.00
2023-05-18T01:41:22.878Z,24.00
2023-05-18T01:42:22.890Z,24.01
2023-05-18T01:43:22.891Z,24.00
2023-05-18T01:44:22.888Z,24.00
2023-05-18T01:45:22.914Z,24.01
2023-05-18T01:46:22.979Z,24.00
2023-05-18T01:47:22.872Z,23.99
2023-05-18T01:48:22.874Z,23.99
2023-05-18T01:49:22.921Z,23.99
2023-05-18T01:50:22.904Z,23.98
2023-05-18T01:51:22.944Z,23.99
2023-05-18T01:52:22.916Z,23.99
2023-05-18T01:53:22.911Z,23.99
2023-05-18T01:54:22.916Z,23.98
2023-05-18T01:55:22.925Z,23.98
2023-05-18T01:56:22.902Z,23.98
2023-05-18T01:57:22.937Z,23.99
2023-05-18T01:58:22.943Z,23.99
2023-05-18T01:59:22.947Z,23.98
2023-05-18T02:00:22.965Z,23.98
2023-05-18T02:01:23.076Z,23.98
2023-05-18T02:02:23.070Z,23.98
2023-05-18T02:03:23.013Z,23.98
2023-05-18T02:04:22.933Z,23.98
2023-05-18T02:05:22.940Z,23.98
2023-05-18T02:06:22.942Z,23.98
2023-05-18T02:07:22.901Z,23.98
2023-05-18T02:08:22.905Z,23.98
2023-05-18T02:09:22.919Z,23.98
2023-05-18T02:10:22.931Z,23.97
2023-05-18T02:11:22.925Z,23.98
2023-05-18T02:12:22.940Z,23.97
2023-05-18T02:13:23.707Z,23.97
2023-05-18T02:14:22.946Z,23.97
2023-05-18T02:15:22.905Z,23.97
2023-05-18T02:16:22.911Z,23.97
2023-05-18T02:17:22.971Z,23.97
2023-05-18T02:18:22.929Z,23.97
2023-05-18T02:19:23.053Z,23.97
2023-05-18T02:20:22.939Z,23.96
2023-05-18T02:21:22.945Z,23.96
2023-05-18T02:22:22.895Z,23.96
2023-05-18T02:23:22.963Z,23.97
2023-05-18T02:24:22.964Z,23.97
2023-05-18T02:25:22.968Z,23.96
2023-05-18T02:26:22.975Z,23.97
2023-05-18T02:27:22.946Z,23.96
2023-05-18T02:28:22.930Z,23.96
2023-05-18T02:29:22.941Z,23.96
2023-05-18T02:30:22.948Z,23.96
2023-05-18T02:31:22.974Z,23.96
2023-05-18T02:32:22.974Z,23.96
2023-05-18T02:33:22.969Z,23.96
2023-05-18T02:34:22.967Z,23.96
2023-05-18T02:35:22.937Z,23.95
2023-05-18T02:36:22.980Z,23.95
2023-05-18T02:37:22.961Z,23.95
2023-05-18T02:38:22.961Z,23.95
2023-05-18T02:39:22.955Z,23.95
2023-05-18T02:40:22.969Z,23.94
2023-05-18T02:41:22.967Z,23.95
2023-05-18T02:42:22.933Z,23.95
2023-05-18T02:43:22.975Z,23.95
2023-05-18T02:44:22.932Z,23.95
2023-05-18T02:45:22.959Z,23.95
2023-05-18T02:46:23.001Z,23.95
2023-05-18T02:47:22.955Z,23.95
2023-05-18T02:48:22.973Z,23.94
2023-05-18T02:49:22.928Z,23.94
2023-05-18T02:50:22.944Z,23.94
2023-05-18T02:51:22.950Z,23.93
2023-05-18T02:52:22.956Z,23.94
2023-05-18T02:53:22.944Z,23.93
2023-05-18T02:54:22.965Z,23.93
2023-05-18T02:55:22.960Z,23.94
2023-05-18T02:56:22.990Z,23.94
2023-05-18T02:57:23.042Z,23.94
2023-05-18T02:58:23.006Z,23.93
2023-05-18T02:59:23.679Z,23.93
2023-05-18T03:00:23.008Z,23.93
2023-05-18T03:01:22.985Z,23.93
2023-05-18T03:02:23.023Z,23.92
2023-05-18T03:03:23.118Z,23.93
2023-05-18T03:04:22.983Z,23.93
2023-05-18T03:05:22.995Z,23.93
2023-05-18T03:06:22.976Z,23.92
2023-05-18T03:07:23.003Z,23.92
2023-05-18T03:08:22.988Z,23.92
2023-05-18T03:09:22.984Z,23.91
2023-05-18T03:10:22.966Z,23.92
2023-05-18T03:11:23.035Z,23.92
2023-05-18T03:12:22.988Z,23.91
2023-05-18T03:13:22.993Z,23.92
2023-05-18T03:14:22.979Z,23.92
2023-05-18T03:15:23.019Z,23.91
2023-05-18T03:16:23.017Z,23.92
2023-05-18T03:17:23.070Z,23.91
2023-05-18T03:18:23.036Z,23.92
2023-05-18T03:19:23.050Z,23.92
2023-05-18T03:20:23.045Z,23.91
2023-05-18T03:21:23.040Z,23.92
2023-05-18T03:22:23.047Z,23.91
2023-05-18T03:23:23.051Z,23.91
2023-05-18T03:24:23.122Z,23.91
2023-05-18T03:25:23.075Z,23.91
2023-05-18T03:26:23.080Z,23.90
2023-05-18T03:27:23.098Z,23.90
2023-05-18T03:28:23.063Z,23.90
2023-05-18T03:29:23.056Z,23.90
2023-05-18T03:30:23.104Z,23.90
2023-05-18T03:31:23.211Z,23.89
2023-05-18T03:32:23.125Z,23.90
2023-05-18T03:33:23.130Z,23.90
2023-05-18T03:34:23.156Z,23.90
2023-05-18T03:35:23.146Z,23.90
2023-05-18T03:36:23.160Z,23.90
2023-05-18T03:37:23.160Z,23.89
2023-05-18T03:38:23.166Z,23.89
2023-05-18T03:39:23.173Z,23.90
2023-05-18T03:40:23.194Z,23.89
2023-05-18T03:41:23.187Z,23.90
2023-05-18T03:42:23.196Z,23.89
2023-05-18T03:43:23.213Z,23.90
2023-05-18T03:44:23.206Z,23.89
2023-05-18T03:45:23.235Z,23.89
2023-05-18T03:46:23.265Z,23.89
2023-05-18T03:47:23.279Z,23.89
2023-05-18T03:48:23.230Z,23.89
2023-05-18T03:49:23.274Z,23.89
2023-05-18T03:50:23.250Z,23.90
2023-05-18T03:51:23.263Z,23.89
2023-05-18T03:52:23.311Z,23.89
2023-05-18T03:53:23.321Z,23.89
2023-05-18T03:54:23.319Z,23.88
2023-05-18T03:55:23.333Z,23.90
2023-05-18T03:56:23.363Z,23.88
2023-05-18T03:57:23.340Z,23.89
2023-05-18T03:58:23.350Z,23.88
2023-05-18T03:59:23.360Z,23.88
2023-05-18T04:00:23.373Z,23.88
2023-05-18T04:01:23.365Z,23.88
2023-05-18T04:02:23.447Z,23.88
2023-05-18T04:03:23.435Z,23.88
2023-05-18T04:04:23.695Z,23.88
2023-05-18T04:05:23.455Z,23.87
2023-05-18T04:06:23.402Z,23.87
2023-05-18T04:07:23.470Z,23.87
2023-05-18T04:08:23.471Z,23.88
2023-05-18T04:09:23.527Z,23.88
2023-05-18T04:10:23.533Z,23.87
2023-05-18T04:11:23.565Z,23.87
2023-05-18T04:12:23.538Z,23.87
2023-05-18T04:13:23.558Z,23.87
2023-05-18T04:14:23.545Z,23.87
2023-05-18T04:15:23.572Z,23.86
2023-05-18T04:16:23.630Z,23.87
2023-05-18T04:17:23.580Z,23.87
2023-05-18T04:18:23.590Z,23.88
2023-05-18T04:19:23.774Z,23.87
2023-05-18T04:20:23.652Z,23.87
2023-05-18T04:21:23.666Z,23.88
2023-05-18T04:22:23.634Z,23.87
2023-05-18T04:23:23.676Z,23.87
2023-05-18T04:24:23.679Z,23.87
2023-05-18T04:25:23.703Z,23.87
2023-05-18T04:26:23.691Z,23.85
2023-05-18T04:27:23.700Z,23.86
2023-05-18T04:28:23.704Z,23.86
2023-05-18T04:29:23.716Z,23.86
2023-05-18T04:30:23.721Z,23.86
2023-05-18T04:31:23.744Z,23.86
2023-05-18T04:32:23.862Z,23.87
2023-05-18T04:33:23.800Z,23.86
2023-05-18T04:34:24.061Z,23.86
2023-05-18T04:35:23.759Z,23.86
2023-05-18T04:36:23.810Z,23.85
2023-05-18T04:37:23.812Z,23.86
2023-05-18T04:38:23.819Z,23.86
2023-05-18T04:39:23.918Z,23.85
2023-05-18T04:40:23.837Z,23.86
2023-05-18T04:41:23.847Z,23.85
2023-05-18T04:42:23.872Z,23.85
2023-05-18T04:43:23.904Z,23.86
2023-05-18T04:44:23.907Z,23.85
2023-05-18T04:45:23.971Z,23.86
2023-05-18T04:46:24.006Z,23.86
2023-05-18T04:47:24.040Z,23.86
2023-05-18T04:48:23.950Z,23.86
2023-05-18T04:49:24.040Z,23.86
2023-05-18T04:50:24.267Z,23.86
2023-05-18T04:51:24.027Z,23.87
2023-05-18T04:52:23.968Z,23.87
2023-05-18T04:53:24.016Z,23.87
2023-05-18T04:54:24.048Z,23.87
2023-05-18T04:55:24.028Z,23.87
2023-05-18T04:56:24.050Z,23.87
2023-05-18T04:57:24.049Z,23.87
2023-05-18T04:58:24.064Z,23.88
2023-05-18T04:59:24.064Z,23.88
2023-05-18T05:00:24.173Z,23.88
2023-05-18T05:01:24.188Z,23.88
2023-05-18T05:02:24.242Z,23.88
2023-05-18T05:03:24.240Z,23.88
2023-05-18T05:04:24.211Z,23.88
2023-05-18T05:05:24.231Z,23.89
2023-05-18T05:06:24.210Z,23.89
2023-05-18T05:07:24.238Z,23.88
2023-05-18T05:08:24.224Z,23.89
2023-05-18T05:09:24.657Z,23.89
2023-05-18T05:10:24.249Z,23.88
2023-05-18T05:11:24.245Z,23.89
2023-05-18T05:12:24.248Z,23.90
2023-05-18T05:13:24.258Z,23.89
2023-05-18T05:14:24.332Z,23.89
2023-05-18T05:15:24.273Z,23.89
2023-05-18T05:16:24.325Z,23.89
2023-05-18T05:17:24.340Z,23.89
2023-05-18T05:18:24.288Z,23.90
2023-05-18T05:19:24.463Z,23.90
2023-05-18T05:20:24.302Z,23.89
2023-05-18T05:21:24.315Z,23.90
2023-05-18T05:22:24.356Z,23.89
2023-05-18T05:23:24.335Z,23.90
2023-05-18T05:24:24.349Z,23.89
2023-05-18T05:25:24.331Z,23.90
2023-05-18T05:26:24.363Z,23.89
2023-05-18T05:27:24.354Z,23.91
2023-05-18T05:28:24.350Z,23.90
2023-05-18T05:29:24.358Z,23.91
2023-05-18T05:30:24.376Z,23.92
2023-05-18T05:31:24.427Z,23.91
2023-05-18T05:32:24.447Z,23.93
2023-05-18T05:33:24.404Z,23.92
2023-05-18T05:34:24.362Z,23.93
2023-05-18T05:35:24.372Z,23.93
2023-05-18T05:36:24.368Z,23.94
2023-05-18T05:37:24.342Z,23.94
2023-05-18T05:38:24.390Z,23.94
2023-05-18T05:39:24.356Z,23.94
2023-05-18T05:40:24.404Z,23.95
2023-05-18T05:41:24.372Z,23.95
2023-05-18T05:42:24.343Z,23.95
2023-05-18T05:43:24.361Z,23.95
2023-05-18T05:44:24.367Z,23.96
2023-05-18T05:45:24.599Z,23.96
2023-05-18T05:46:24.390Z,23.96
2023-05-18T05:47:24.343Z,23.96
2023-05-18T05:48:24.349Z,23.97
2023-05-18T05:49:24.361Z,23.97
2023-05-18T05:50:24.367Z,23.96
2023-05-18T05:51:24.381Z,23.98
2023-05-18T05:52:24.397Z,23.98
2023-05-18T05:53:24.383Z,23.99
2023-05-18T05:54:24.407Z,23.99
2023-05-18T05:55:24.406Z,24.00
2023-05-18T05:56:24.415Z,24.00
2023-05-18T05:57:24.421Z,24.01
2023-05-18T05:58:24.421Z,24.01
2023-05-18T05:59:24.400Z,24.01
2023-05-18T06:00:24.467Z,24.01
2023-05-18T06:01:24.461Z,24.01
2023-05-18T06:02:24.520Z,24.02
2023-05-18T06:03:24.656Z,24.02
2023-05-18T06:04:24.551Z,24.02
2023-05-18T06:05:24.485Z,24.02
2023-05-18T06:06:24.525Z,24.02
2023-05-18T06:07:24.537Z,24.03
2023-05-18T06:08:24.580Z,24.02
2023-05-18T06:09:24.590Z,24.02
2023-05-18T06:10:24.648Z,24.03
2023-05-18T06:11:24.626Z,24.03
2023-05-18T06:12:24.681Z,24.04
2023-05-18T06:13:24.761Z,24.03
2023-05-18T06:14:24.727Z,24.04
2023-05-18T06:15:24.758Z,24.05
2023-05-18T06:16:24.817Z,24.04
2023-05-18T06:17:24.863Z,24.05
2023-05-18T06:18:24.839Z,24.06
2023-05-18T06:19:25.071Z,24.06
2023-05-18T06:20:24.934Z,24.06
2023-05-18T06:21:24.999Z,24.07
2023-05-18T06:22:25.022Z,24.07
2023-05-18T06:23:25.062Z,24.08
2023-05-18T06:24:25.109Z,24.08
2023-05-18T06:25:25.122Z,24.09
2023-05-18T06:26:25.189Z,24.10
2023-05-18T06:27:25.243Z,24.11
2023-05-18T06:28:25.279Z,24.12
2023-05-18T06:29:25.316Z,24.12
2023-05-18T06:30:25.507Z,24.14
2023-05-18T06:31:25.484Z,24.14
2023-05-18T06:32:25.632Z,24.15
2023-05-18T06:33:25.546Z,24.17
2023-05-18T06:34:25.652Z,24.17
2023-05-18T06:35:25.709Z,24.18
2023-05-18T06:36:25.750Z,24.19
2023-05-18T06:37:25.815Z,24.19
2023-05-18T06:38:25.883Z,24.20
2023-05-18T06:39:25.990Z,24.20
2023-05-18T06:40:26.055Z,24.21
2023-05-18T06:41:26.065Z,24.22
2023-05-18T06:42:26.115Z,24.23
2023-05-18T06:43:26.170Z,24.23
2023-05-18T06:44:26.230Z,24.24
2023-05-18T06:45:26.427Z,24.24
2023-05-18T06:46:26.450Z,24.24
2023-05-18T06:47:26.425Z,24.24
2023-05-18T06:48:26.451Z,24.25
2023-05-18T06:49:26.541Z,24.26
2023-05-18T06:50:26.573Z,24.25
2023-05-18T06:51:26.636Z,24.26
2023-05-18T06:52:27.192Z,24.27
2023-05-18T06:53:26.745Z,24.27
2023-05-18T06:54:26.797Z,24.28
2023-05-18T06:55:26.803Z,24.29
2023-05-18T06:56:26.874Z,24.29
2023-05-18T06:57:26.956Z,24.29
2023-05-18T06:58:26.987Z,24.29
2023-05-18T06:59:27.056Z,24.30
2023-05-18T07:00:27.155Z,24.30
2023-05-18T07:01:27.190Z,24.30
2023-05-18T07:02:27.285Z,24.32
2023-05-18T07:03:27.248Z,24.33
2023-05-18T07:04:27.278Z,24.33
2023-05-18T07:05:27.319Z,24.33
2023-05-18T07:06:27.344Z,24.34
2023-05-18T07:07:27.506Z,24.35
2023-05-18T07:08:27.465Z,24.35
2023-05-18T07:09:27.466Z,24.36
2023-05-18T07:10:27.593Z,24.37
2023-05-18T07:11:29.646Z,24.37
2023-05-18T07:12:27.756Z,24.38
2023-05-18T07:13:27.814Z,24.38
2023-05-18T07:14:27.866Z,24.38
2023-05-18T07:15:27.887Z,24.38
2023-05-18T07:16:28.199Z,24.39
2023-05-18T07:17:28.028Z,24.40
2023-05-18T07:18:28.037Z,24.41
2023-05-18T07:19:28.369Z,24.41
2023-05-18T07:20:28.327Z,24.41
2023-05-18T07:21:28.304Z,24.42
2023-05-18T07:22:28.383Z,24.42
2023-05-18T07:23:28.394Z,24.43
2023-05-18T07:24:28.450Z,24.43
2023-05-18T07:25:28.635Z,24.43
2023-05-18T07:26:28.515Z,24.45
2023-05-18T07:27:28.579Z,24.45
2023-05-18T07:28:28.629Z,24.44
2023-05-18T07:29:28.684Z,24.46
2023-05-18T07:30:28.748Z,24.46
2023-05-18T07:31:28.853Z,24.46
2023-05-18T07:32:28.798Z,24.46
2023-05-18T07:33:28.820Z,24.46
2023-05-18T07:34:28.888Z,24.45
2023-05-18T07:35:29.144Z,24.45
2023-05-18T07:36:28.943Z,24.46
2023-05-18T07:37:29.041Z,24.46
2023-05-18T07:38:29.028Z,24.46
2023-05-18T07:39:29.154Z,24.46
2023-05-18T07:40:29.128Z,24.46
2023-05-18T07:41:29.176Z,24.46
2023-05-18T07:42:29.241Z,24.46
2023-05-18T07:43:29.245Z,24.46
2023-05-18T07:44:29.289Z,24.47
2023-05-18T07:45:29.538Z,24.48
2023-05-18T07:46:29.405Z,24.47
2023-05-18T07:47:29.446Z,24.48
2023-05-18T07:48:29.444Z,24.48
2023-05-18T07:49:29.631Z,24.48
2023-05-18T07:50:29.668Z,24.48
2023-05-18T07:51:29.604Z,24.49
2023-05-18T07:52:29.576Z,24.49
2023-05-18T07:53:29.609Z,24.49
2023-05-18T07:54:29.622Z,24.50
2023-05-18T07:55:29.938Z,24.51
2023-05-18T07:56:29.713Z,24.51
2023-05-18T07:57:29.749Z,24.51
2023-05-18T07:58:29.773Z,24.52
2023-05-18T07:59:29.835Z,24.52
2023-05-18T08:00:29.833Z,24.53
2023-05-18T08:01:29.907Z,24.54
2023-05-18T08:02:32.878Z,24.55
2023-05-18T08:03:30.035Z,24.55
2023-05-18T08:04:30.080Z,24.56
2023-05-18T08:05:30.188Z,24.57
2023-05-18T08:06:29.941Z,24.58
2023-05-18T08:07:29.957Z,24.58
2023-05-18T08:08:29.888Z,24.58
2023-05-18T08:09:29.878Z,24.59
2023-05-18T08:10:29.862Z,24.60
2023-05-18T08:11:29.837Z,24.59
2023-05-18T08:12:29.882Z,24.61
2023-05-18T08:13:30.854Z,24.61
2023-05-18T08:14:29.825Z,24.61
2023-05-18T08:15:30.032Z,24.62
2023-05-18T08:16:29.890Z,24.63
2023-05-18T08:17:29.841Z,24.64
2023-05-18T08:18:29.833Z,24.64
2023-05-18T08:19:29.957Z,24.64
2023-05-18T08:20:29.810Z,24.65
2023-05-18T08:21:29.831Z,24.65
2023-05-18T08:22:29.790Z,24.65
2023-05-18T08:23:29.783Z,24.64
2023-05-18T08:24:29.812Z,24.65
2023-05-18T08:25:29.959Z,24.64
2023-05-18T08:26:29.742Z,24.65
2023-05-18T08:27:29.828Z,24.65
2023-05-18T08:28:29.751Z,24.65
2023-05-18T08:29:29.783Z,24.65
2023-05-18T08:30:29.724Z,24.65
2023-05-18T08:31:29.767Z,24.66
2023-05-18T08:32:29.761Z,24.67
2023-05-18T08:33:29.714Z,24.67
2023-05-18T08:34:29.726Z,24.68
2023-05-18T08:35:30.002Z,24.68
2023-05-18T08:36:29.725Z,24.68
2023-05-18T08:37:29.779Z,24.68
2023-05-18T08:38:29.670Z,24.69
2023-05-18T08:39:29.667Z,24.69
2023-05-18T08:40:29.670Z,24.71
2023-05-18T08:41:29.648Z,24.70
2023-05-18T08:42:38.055Z,24.71
2023-05-18T08:43:30.659Z,24.71
2023-05-18T08:44:29.631Z,24.72
2023-05-18T08:45:29.890Z,24.73
2023-05-18T08:46:29.600Z,24.73
2023-05-18T08:47:29.624Z,24.74
2023-05-18T08:48:29.689Z,24.74
2023-05-18T08:49:29.622Z,24.74
2023-05-18T08:50:29.873Z,24.74
2023-05-18T08:51:29.617Z,24.74
2023-05-18T08:52:29.604Z,24.75
2023-05-18T08:53:29.567Z,24.75
2023-05-18T08:54:29.624Z,24.76
2023-05-18T08:55:29.797Z,24.75
2023-05-18T08:56:29.642Z,24.75
2023-05-18T08:57:29.638Z,24.76
2023-05-18T08:58:29.672Z,24.76
2023-05-18T08:59:29.686Z,24.77
2023-05-18T09:00:30.119Z,24.76
2023-05-18T09:01:29.884Z,24.76
2023-05-18T09:02:29.727Z,24.77
2023-05-18T09:03:29.729Z,24.77
2023-05-18T09:04:29.760Z,24.78
2023-05-18T09:05:30.067Z,24.78
2023-05-18T09:06:29.772Z,24.78
2023-05-18T09:07:29.781Z,24.78
2023-05-18T09:08:29.804Z,24.78
2023-05-18T09:09:29.783Z,24.78
2023-05-18T09:10:29.904Z,24.79
2023-05-18T09:11:29.869Z,24.79
2023-05-18T09:12:29.873Z,24.80
2023-05-18T09:13:29.865Z,24.79
2023-05-18T09:14:29.929Z,24.81
2023-05-18T09:15:30.071Z,24.81
2023-05-18T09:16:29.993Z,24.82
2023-05-18T09:17:29.987Z,24.83
2023-05-18T09:18:29.949Z,24.83
2023-05-18T09:19:30.001Z,24.83
2023-05-18T09:20:30.004Z,24.84
2023-05-18T09:21:30.024Z,24.84
2023-05-18T09:22:30.043Z,24.84
2023-05-18T09:23:30.046Z,24.85
2023-05-18T09:24:30.030Z,24.86
2023-05-18T09:25:30.241Z,24.87
2023-05-18T09:26:30.068Z,24.87
2023-05-18T09:27:30.007Z,24.87
2023-05-18T09:28:30.192Z,24.88
2023-05-18T09:29:32.371Z,24.88
2023-05-18T09:30:30.032Z,24.88
2023-05-18T09:31:30.059Z,24.89
2023-05-18T09:32:30.063Z,24.89
2023-05-18T09:33:30.085Z,24.89
2023-05-18T09:34:29.999Z,24.90
2023-05-18T09:35:30.262Z,24.91
2023-05-18T09:36:30.051Z,24.91
2023-05-18T09:37:30.024Z,24.92
2023-05-18T09:38:29.985Z,24.91
2023-05-18T09:39:29.970Z,24.92
2023-05-18T09:40:30.004Z,24.93
2023-05-18T09:41:29.969Z,24.94
2023-05-18T09:42:29.973Z,24.94
2023-05-18T09:43:29.975Z,24.94
2023-05-18T09:44:30.036Z,24.95
2023-05-18T09:45:30.313Z,24.96
2023-05-18T09:46:30.025Z,24.96
2023-05-18T09:47:29.996Z,24.97
2023-05-18T09:48:29.961Z,24.97
2023-05-18T09:49:29.920Z,24.98
2023-05-18T09:50:29.912Z,24.98
2023-05-18T09:51:29.943Z,24.98
2023-05-18T09:52:29.938Z,24.98
2023-05-18T09:53:29.954Z,24.98
2023-05-18T09:54:29.859Z,24.98
2023-05-18T09:55:30.029Z,24.99
2023-05-18T09:56:29.897Z,24.99
2023-05-18T09:57:29.843Z,24.99
2023-05-18T09:58:29.845Z,25.00
2023-05-18T09:59:29.826Z,25.01
2023-05-18T10:00:29.894Z,25.02
2023-05-18T10:01:29.934Z,25.02
2023-05-18T10:02:29.853Z,25.03
2023-05-18T10:03:29.898Z,25.03
2023-05-18T10:04:30.156Z,25.04
2023-05-18T10:05:30.294Z,25.04
2023-05-18T10:06:29.835Z,25.04
2023-05-18T10:07:29.779Z,25.04
2023-05-18T10:08:29.850Z,25.04
2023-05-18T10:09:29.864Z,25.04
2023-05-18T10:10:30.020Z,25.07
2023-05-18T10:11:29.792Z,25.08
2023-05-18T10:12:29.782Z,25.07
2023-05-18T10:13:29.822Z,25.08
2023-05-18T10:14:31.366Z,25.08
2023-05-18T10:15:29.995Z,25.08
2023-05-18T10:16:29.837Z,25.09
2023-05-18T10:17:29.840Z,25.09
2023-05-18T10:18:29.791Z,25.09
2023-05-18T10:19:30.269Z,25.10
2023-05-18T10:20:29.820Z,25.10
2023-05-18T10:21:29.727Z,25.10
2023-05-18T10:22:29.731Z,25.11
2023-05-18T10:23:29.740Z,25.11
2023-05-18T10:24:29.687Z,25.12
2023-05-18T10:25:29.692Z,25.13
2023-05-18T10:26:29.690Z,25.14
2023-05-18T10:27:29.677Z,25.14
2023-05-18T10:28:29.674Z,25.15
2023-05-18T10:29:29.726Z,25.16
2023-05-18T10:30:29.933Z,25.17
2023-05-18T10:31:29.828Z,25.17
2023-05-18T10:32:29.857Z,25.18
2023-05-18T10:33:30.309Z,25.19
2023-05-18T10:34:29.842Z,25.19
2023-05-18T10:35:29.932Z,25.20
2023-05-18T10:36:29.945Z,25.21
2023-05-18T10:37:29.981Z,25.21
2023-05-18T10:38:29.988Z,25.21
2023-05-18T10:39:30.064Z,25.21
2023-05-18T10:40:30.221Z,25.22
2023-05-18T10:41:30.174Z,25.23
2023-05-18T10:42:30.197Z,25.24
2023-05-18T10:43:30.299Z,25.25
2023-05-18T10:44:30.293Z,25.25
2023-05-18T10:45:30.348Z,25.25
2023-05-18T10:46:30.425Z,25.27
2023-05-18T10:47:30.546Z,25.26
2023-05-18T10:48:30.583Z,25.27
2023-05-18T10:49:30.528Z,25.27
2023-05-18T10:50:30.900Z,25.28
2023-05-18T10:51:30.657Z,25.28
2023-05-18T10:52:30.656Z,25.29
2023-05-18T10:53:30.758Z,25.28
2023-05-18T10:54:30.749Z,25.28
2023-05-18T10:55:30.896Z,25.29
2023-05-18T10:56:30.898Z,25.28
2023-05-18T10:57:30.974Z,25.28
2023-05-18T10:58:31.057Z,25.29
2023-05-18T10:59:31.052Z,25.29
2023-05-18T11:00:31.398Z,25.29
2023-05-18T11:01:31.220Z,25.30
2023-05-18T11:02:31.288Z,25.30
2023-05-18T11:03:31.338Z,25.30
2023-05-18T11:04:31.476Z,25.31
2023-05-18T11:05:31.467Z,25.32
2023-05-18T11:06:31.571Z,25.33
2023-05-18T11:07:31.583Z,25.33
2023-05-18T11:09:50.556Z,25.30
2023-05-18T11:10:50.846Z,25.32
2023-05-18T11:11:51.103Z,25.34
2023-05-18T11:12:51.182Z,25.34
2023-05-18T11:13:51.316Z,25.36
2023-05-18T11:14:51.586Z,25.37
2023-05-18T11:15:51.776Z,25.38
2023-05-18T11:16:51.941Z,25.39
2023-05-18T11:17:52.145Z,25.39
2023-05-18T11:18:52.303Z,25.40
2023-05-18T11:19:52.387Z,25.40
2023-05-18T11:20:52.589Z,25.41
2023-05-18T11:21:52.772Z,25.42
2023-05-18T11:22:52.930Z,25.42
2023-05-18T11:23:53.086Z,25.43
2023-05-18T11:24:53.307Z,25.43
2023-05-18T11:25:53.365Z,25.44
2023-05-18T11:26:53.526Z,25.45
2023-05-18T11:27:53.684Z,25.44
2023-05-18T11:28:53.875Z,25.45
2023-05-18T11:30:03.879Z,25.46
2023-05-18T11:30:54.807Z,25.46
2023-05-18T11:31:53.920Z,25.47
2023-05-18T11:32:53.845Z,25.46
2023-05-18T11:33:53.811Z,25.47
2023-05-18T11:34:53.759Z,25.47
2023-05-18T11:35:53.785Z,25.48
2023-05-18T11:36:53.819Z,25.48
2023-05-18T11:37:53.741Z,25.48
2023-05-18T11:38:53.804Z,25.48
2023-05-18T11:39:59.415Z,25.49
2023-05-18T11:40:54.773Z,25.49
2023-05-18T11:41:53.844Z,25.49
2023-05-18T11:42:53.756Z,25.50
2023-05-18T11:43:54.225Z,25.51
2023-05-18T11:44:54.097Z,25.52
2023-05-18T11:45:53.756Z,25.52
2023-05-18T11:46:53.748Z,25.52
2023-05-18T11:47:54.335Z,25.53
2023-05-18T11:48:53.805Z,25.53
2023-05-18T11:49:53.831Z,25.55
2023-05-18T11:50:53.898Z,25.55
2023-05-18T11:51:53.911Z,25.55
2023-05-18T11:52:54.000Z,25.56
2023-05-18T11:53:54.042Z,25.56
2023-05-18T11:54:54.110Z,25.57
2023-05-18T11:55:54.238Z,25.57
2023-05-18T11:56:54.281Z,25.58
2023-05-18T11:57:54.274Z,25.59
2023-05-18T11:58:54.344Z,25.59
2023-05-18T11:59:54.402Z,25.60
2023-05-18T12:00:54.459Z,25.60
2023-05-18T12:01:54.536Z,25.61
2023-05-18T12:02:54.711Z,25.62
2023-05-18T12:03:54.738Z,25.62
2023-05-18T12:04:54.831Z,25.64
2023-05-18T12:05:54.726Z,25.65
2023-05-18T12:06:54.803Z,25.65
2023-05-18T12:07:54.900Z,25.66
2023-05-18T12:08:54.921Z,25.66
2023-05-18T12:09:54.968Z,25.68
2023-05-18T12:10:55.097Z,25.67
2023-05-18T12:11:55.094Z,25.68
2023-05-18T12:12:55.168Z,25.70
2023-05-18T12:13:55.198Z,25.70
2023-05-18T12:14:55.285Z,25.72
2023-05-18T12:15:56.863Z,25.73
2023-05-18T12:16:55.347Z,25.74
2023-05-18T12:17:55.303Z,25.74
2023-05-18T12:18:55.349Z,25.75
2023-05-18T12:19:55.298Z,25.76
2023-05-18T12:20:55.320Z,25.77
2023-05-18T12:21:56.696Z,25.78
2023-05-18T12:22:55.451Z,25.79
2023-05-18T12:23:55.481Z,25.80
2023-05-18T12:24:55.546Z,25.81
2023-05-18T12:25:55.578Z,25.83
2023-05-18T12:26:55.504Z,25.84
2023-05-18T12:27:55.568Z,25.85
2023-05-18T12:28:55.686Z,25.85
2023-05-18T12:29:55.681Z,25.86
2023-05-18T12:30:55.758Z,25.86
2023-05-18T12:31:55.796Z,25.86
2023-05-18T12:32:55.937Z,25.87
2023-05-18T12:33:58.182Z,25.87
2023-05-18T12:34:55.859Z,25.87
2023-05-18T12:35:55.857Z,25.87
2023-05-18T12:36:55.826Z,25.88
2023-05-18T12:37:55.857Z,25.89
2023-05-18T12:38:55.855Z,25.89
2023-05-18T12:39:55.849Z,25.89
2023-05-18T12:40:55.794Z,25.90
2023-05-18T12:41:55.806Z,25.91
2023-05-18T12:42:55.801Z,25.91
2023-05-18T12:43:55.767Z,25.91
2023-05-18T12:44:55.783Z,25.92
2023-05-18T12:45:55.810Z,25.92
2023-05-18T12:46:55.899Z,25.92
2023-05-18T12:47:56.098Z,25.93
2023-05-18T12:48:55.741Z,25.92
2023-05-18T12:49:55.754Z,25.92
2023-05-18T12:50:55.712Z,25.93
2023-05-18T12:51:55.739Z,25.93
2023-05-18T12:52:55.735Z,25.93
2023-05-18T12:53:56.080Z,25.93